JDI weather

Udelva Airport
Jamundi, Valle del Cauca Department, Colombia

Public forecast

Using degrees Celsius for public forecast. Weather courtesy of forecast.io.

Closest aviation weather report (METAR) to Udelva Airport

Closest report is Alfonso Bonilla Aragon International Airport, 20.0 nm (37.0 km) NNE. Retrieved 2020/02/23 13:00 UTC (31 minutes ago):

SKCL 231300Z VRB02KT 6000 FEW008 SCT017 BKN090 23/21 A3005NOSIG

Closest aviation forecast (TAF) to Udelva Airport

Closest forecast is Alfonso Bonilla Aragon International Airport, 20.0 nm (37.0 km) NNE. Retrieved 2020/02/23 12:30 UTC (1 hour ago):

TAF SKCL 231030Z 2312/2412 04003KT 9999 SCT020 BKN090 TEMPO 2312/2313 6000 VCFG DZ SCT015 BECMG 2315/2317 31010KT TEMPO 2319/2322 6000 DZRA SCT020CB BECMG 2400/2402 VRB02KT TEMPO 2409/2412 5000 VCFG -DZ SCT015 TX29/2319Z TN19/2411Z